Time;durP1;ratioP1;P1;durP2;ratioP2;P2;SDS_P1;SDS_P2;PMS_P1;PMS_P2;Temp;Humidity;BMP_temperature;BMP_pressure;BME280_temperature;BME280_humidity;BME280_pressure;Samples;Min_cycle;Max_cycle;Signal;HPM_P1;HPM_P2
2021/04/27 00:02:04;;;;;;;3.83;2.43;;;;;;;;;;5073470;28;20624;-74
2021/04/27 00:05:12;;;;;;;4.17;2.60;;;;;;;;;;5061353;28;20550;-74
2021/04/27 00:08:16;;;;;;;3.93;2.53;;;;;;;;;;5078556;28;20559;-74
2021/04/27 00:11:20;;;;;;;4.83;2.40;;;;;;;;;;5073616;28;20534;-74
2021/04/27 00:14:24;;;;;;;6.97;3.03;;;;;;;;;;5073452;28;20554;-74
2021/04/27 00:17:28;;;;;;;3.37;2.50;;;;;;;;;;5073720;28;20951;-73
2021/04/27 00:20:32;;;;;;;4.87;2.90;;;;;;;;;;5067084;28;20948;-74
2021/04/27 00:23:36;;;;;;;4.57;2.90;;;;;;;;;;5073220;28;20554;-74
2021/04/27 00:26:40;;;;;;;2.93;2.47;;;;;;;;;;5073042;28;20633;-74
2021/04/27 00:29:44;;;;;;;9.03;3.03;;;;;;;;;;5073149;28;20553;-74
2021/04/27 00:32:49;;;;;;;4.70;2.47;;;;;;;;;;5072270;28;20526;-74
2021/04/27 00:35:53;;;;;;;4.33;2.80;;;;;;;;;;5076627;28;20618;-74
2021/04/27 00:38:58;;;;;;;4.70;2.67;;;;;;;;;;5074387;28;20541;-74
2021/04/27 00:42:02;;;;;;;3.43;2.60;;;;;;;;;;5076809;28;20589;-74
2021/04/27 00:45:10;;;;;;;4.73;2.63;;;;;;;;;;5076696;28;20554;-74
2021/04/27 00:48:14;;;;;;;5.90;3.03;;;;;;;;;;5077232;28;20542;-74
2021/04/27 00:51:18;;;;;;;3.50;2.63;;;;;;;;;;5077073;28;20912;-74
2021/04/27 00:54:22;;;;;;;3.93;2.50;;;;;;;;;;5077092;28;20537;-74
2021/04/27 00:57:27;;;;;;;4.57;3.07;;;;;;;;;;5076459;28;20541;-74
2021/04/27 01:00:34;;;;;;;3.73;2.43;;;;;;;;;;5075933;28;20538;-74
2021/04/27 01:03:39;;;;;;;3.07;2.50;;;;;;;;;;5076710;28;20901;-74
2021/04/27 01:06:43;;;;;;;4.13;2.53;;;;;;;;;;5076358;28;20621;-74
2021/04/27 01:09:54;;;;;;;5.37;2.53;;;;;;;;;;5076848;28;20940;-74
2021/04/27 01:13:03;;;;;;;3.33;2.20;;;;;;;;;;5075976;28;20597;-74
2021/04/27 01:16:09;;;;;;;5.50;3.00;;;;;;;;;;5067433;28;20625;-74
2021/04/27 01:19:16;;;;;;;5.60;2.77;;;;;;;;;;5075358;28;20605;-74
2021/04/27 01:22:31;;;;;;;5.23;2.43;;;;;;;;;;5075172;28;20640;-74
2021/04/27 01:25:37;;;;;;;4.83;3.03;;;;;;;;;;5078287;28;20645;-74
2021/04/27 01:28:42;;;;;;;4.43;2.87;;;;;;;;;;5081346;28;20896;-74
2021/04/27 01:31:48;;;;;;;4.63;2.67;;;;;;;;;;5075807;28;20605;-73
2021/04/27 01:34:53;;;;;;;5.07;3.17;;;;;;;;;;5081127;28;20549;-74
2021/04/27 01:38:22;;;;;;;4.50;3.20;;;;;;;;;;5081702;28;20554;-74
2021/04/27 01:41:26;;;;;;;3.87;2.97;;;;;;;;;;5074741;28;20649;-74
2021/04/27 01:44:32;;;;;;;4.80;3.20;;;;;;;;;;5075551;28;20605;-74
2021/04/27 01:47:36;;;;;;;3.93;2.83;;;;;;;;;;5076100;28;20905;-74
2021/04/27 01:50:42;;;;;;;6.40;2.73;;;;;;;;;;5075470;28;20542;-74
2021/04/27 01:54:05;;;;;;;4.83;2.90;;;;;;;;;;5075517;28;20550;-74
2021/04/27 01:57:09;;;;;;;6.17;3.23;;;;;;;;;;5075357;28;20613;-74
2021/04/27 02:00:16;;;;;;;3.93;2.70;;;;;;;;;;5074545;28;20546;-74
2021/04/27 02:03:27;;;;;;;4.00;3.00;;;;;;;;;;5074750;28;20594;-74
2021/04/27 02:06:34;;;;;;;4.67;3.20;;;;;;;;;;5074482;28;20625;-74
2021/04/27 02:09:40;;;;;;;5.40;3.50;;;;;;;;;;5080496;28;20538;-74
2021/04/27 02:12:56;;;;;;;6.67;3.67;;;;;;;;;;5074307;28;20581;-74
2021/04/27 02:16:02;;;;;;;7.93;3.50;;;;;;;;;;5074341;28;20629;-74
2021/04/27 02:19:06;;;;;;;4.77;3.90;;;;;;;;;;5074979;28;20538;-74
2021/04/27 02:22:11;;;;;;;6.33;3.00;;;;;;;;;;5073992;28;20602;-73
2021/04/27 02:25:26;;;;;;;7.13;3.10;;;;;;;;;;5074087;28;20633;-74
2021/04/27 02:28:32;;;;;;;6.10;3.40;;;;;;;;;;5062715;28;20558;-73
2021/04/27 02:31:36;;;;;;;5.33;3.40;;;;;;;;;;5079971;28;20534;-74
2021/04/27 02:34:43;;;;;;;6.23;3.90;;;;;;;;;;5079637;28;20538;-73
2021/04/27 02:37:50;;;;;;;6.40;3.60;;;;;;;;;;5074024;28;20587;-73
2021/04/27 02:41:10;;;;;;;5.70;3.70;;;;;;;;;;5064600;28;20597;-73
2021/04/27 02:44:15;;;;;;;5.57;3.20;;;;;;;;;;5074589;28;21107;-74
2021/04/27 02:47:21;;;;;;;6.23;3.63;;;;;;;;;;5056138;28;20659;-72
2021/04/27 02:50:26;;;;;;;5.47;3.40;;;;;;;;;;5049760;28;20563;-72
2021/04/27 02:53:30;;;;;;;4.43;3.40;;;;;;;;;;5030675;28;20560;-73
2021/04/27 02:56:35;;;;;;;6.23;3.67;;;;;;;;;;5031813;28;20635;-73
2021/04/27 02:59:40;;;;;;;5.47;3.43;;;;;;;;;;5035005;28;20563;-73
2021/04/27 03:02:43;;;;;;;5.30;3.30;;;;;;;;;;5028767;28;20623;-72
2021/04/27 03:05:48;;;;;;;6.13;3.60;;;;;;;;;;5030347;28;20627;-73
2021/04/27 03:08:53;;;;;;;6.80;3.73;;;;;;;;;;5035240;28;20576;-73
2021/04/27 03:11:57;;;;;;;4.87;3.50;;;;;;;;;;5029863;28;20607;-73
2021/04/27 03:15:07;;;;;;;27.87;6.17;;;;;;;;;;5029408;28;20602;-72
2021/04/27 03:18:16;;;;;;;19.20;4.43;;;;;;;;;;5030121;28;20568;-72
2021/04/27 03:21:21;;;;;;;20.57;5.17;;;;;;;;;;5030164;28;21366;-72
2021/04/27 03:24:27;;;;;;;7.97;4.00;;;;;;;;;;5034427;28;20564;-73
2021/04/27 03:27:32;;;;;;;5.03;3.73;;;;;;;;;;5034799;28;20563;-72
2021/04/27 03:30:48;;;;;;;5.17;3.60;;;;;;;;;;5034918;28;20572;-73
2021/04/27 03:33:54;;;;;;;5.03;3.20;;;;;;;;;;5034750;28;20564;-72
2021/04/27 03:36:59;;;;;;;7.57;4.10;;;;;;;;;;5029109;28;20635;-72
2021/04/27 03:40:04;;;;;;;6.20;3.80;;;;;;;;;;5029119;28;20607;-73
2021/04/27 03:43:09;;;;;;;5.77;3.70;;;;;;;;;;5034388;28;20619;-72
2021/04/27 03:46:20;;;;;;;6.63;3.50;;;;;;;;;;5028490;28;20627;-73
2021/04/27 03:49:24;;;;;;;5.93;3.73;;;;;;;;;;5028813;28;20599;-73
2021/04/27 03:52:29;;;;;;;6.00;3.50;;;;;;;;;;5029783;28;20567;-72
2021/04/27 03:55:33;;;;;;;7.27;3.70;;;;;;;;;;5033795;28;20994;-72
2021/04/27 03:58:39;;;;;;;5.57;3.67;;;;;;;;;;5034085;28;20559;-72
2021/04/27 04:01:44;;;;;;;5.50;3.90;;;;;;;;;;5028683;28;20604;-72
2021/04/27 04:04:48;;;;;;;5.87;3.90;;;;;;;;;;5034418;28;21128;-73
2021/04/27 04:07:55;;;;;;;4.97;3.33;;;;;;;;;;5029518;28;20563;-73
2021/04/27 04:11:01;;;;;;;10.77;3.80;;;;;;;;;;5029323;28;20564;-72
2021/04/27 04:14:05;;;;;;;8.67;3.93;;;;;;;;;;5032546;28;20576;-72
2021/04/27 04:17:22;;;;;;;5.43;3.77;;;;;;;;;;5032670;28;20627;-72
2021/04/27 04:20:26;;;;;;;11.23;4.30;;;;;;;;;;5038567;28;20579;-72
2021/04/27 04:23:54;;;;;;;7.50;4.30;;;;;;;;;;5056996;28;20590;-73
2021/04/27 04:26:59;;;;;;;7.50;3.83;;;;;;;;;;5035754;28;20646;-73
2021/04/27 04:30:23;;;;;;;7.30;3.97;;;;;;;;;;5041497;28;20555;-73
2021/04/27 04:33:27;;;;;;;14.47;5.40;;;;;;;;;;5037214;28;20532;-74
2021/04/27 04:36:50;;;;;;;5.87;4.23;;;;;;;;;;5037350;28;20623;-74
2021/04/27 04:40:14;;;;;;;9.37;4.67;;;;;;;;;;5036834;28;20540;-74
2021/04/27 04:43:36;;;;;;;11.97;4.50;;;;;;;;;;5035841;28;20603;-73
2021/04/27 04:46:58;;;;;;;10.17;3.87;;;;;;;;;;5036315;28;20627;-73
2021/04/27 04:50:31;;;;;;;11.80;4.40;;;;;;;;;;5036785;28;20602;-73
2021/04/27 04:53:55;;;;;;;9.17;4.33;;;;;;;;;;5026602;28;21183;-73
2021/04/27 04:56:59;;;;;;;9.43;4.67;;;;;;;;;;5037129;28;20631;-73
2021/04/27 05:00:18;;;;;;;7.57;4.80;;;;;;;;;;5041430;28;20563;-73
2021/04/27 05:03:54;;;;;;;65.33;7.33;;;;;;;;;;5036998;28;20537;-73
2021/04/27 05:07:13;;;;;;;13.17;4.87;;;;;;;;;;5036270;28;20611;-71
2021/04/27 05:10:37;;;;;;;71.37;7.57;;;;;;;;;;5036225;28;20544;-72
2021/04/27 05:13:57;;;;;;;12.57;4.67;;;;;;;;;;5041084;28;20896;-72
2021/04/27 05:17:01;;;;;;;47.30;6.43;;;;;;;;;;5035223;28;20619;-72
2021/04/27 05:20:06;;;;;;;10.93;4.13;;;;;;;;;;5036332;28;20544;-71
2021/04/27 05:23:15;;;;;;;9.60;3.80;;;;;;;;;;5043938;28;20614;-71
2021/04/27 05:26:26;;;;;;;7.43;4.10;;;;;;;;;;5054672;28;20646;-71
2021/04/27 05:29:30;;;;;;;6.53;4.50;;;;;;;;;;5029658;28;20552;-71
2021/04/27 05:32:34;;;;;;;7.43;3.57;;;;;;;;;;5035953;28;20560;-71
2021/04/27 05:35:41;;;;;;;5.60;3.33;;;;;;;;;;5035996;28;20623;-71
2021/04/27 05:38:44;;;;;;;9.20;4.17;;;;;;;;;;5035877;28;20560;-71
2021/04/27 05:41:49;;;;;;;7.80;4.40;;;;;;;;;;5035669;28;20595;-71
2021/04/27 05:44:53;;;;;;;5.47;3.33;;;;;;;;;;5035618;28;20602;-71
2021/04/27 05:47:57;;;;;;;7.30;3.93;;;;;;;;;;5040774;28;20544;-71
2021/04/27 05:51:01;;;;;;;8.47;4.30;;;;;;;;;;5035444;28;20594;-71
2021/04/27 05:54:05;;;;;;;19.93;4.57;;;;;;;;;;5035471;28;20953;-71
2021/04/27 05:57:09;;;;;;;15.13;3.83;;;;;;;;;;5035281;28;21180;-71
2021/04/27 06:00:14;;;;;;;6.30;3.57;;;;;;;;;;5035318;28;20599;-71
2021/04/27 06:03:19;;;;;;;18.87;4.20;;;;;;;;;;5035324;28;20591;-71
2021/04/27 06:06:23;;;;;;;6.53;3.73;;;;;;;;;;5035402;28;20623;-71
2021/04/27 06:09:27;;;;;;;7.03;4.10;;;;;;;;;;5039999;28;21086;-71
2021/04/27 06:12:32;;;;;;;5.40;3.70;;;;;;;;;;5039960;28;20544;-71
2021/04/27 06:15:36;;;;;;;17.33;4.60;;;;;;;;;;5034545;28;20619;-71
2021/04/27 06:18:40;;;;;;;6.10;3.80;;;;;;;;;;5035254;28;20640;-71
2021/04/27 06:21:46;;;;;;;7.23;3.87;;;;;;;;;;5034969;28;20173;-71
2021/04/27 06:24:50;;;;;;;4.80;3.60;;;;;;;;;;5040065;28;20181;-71
2021/04/27 06:27:55;;;;;;;6.13;4.10;;;;;;;;;;5034816;28;20559;-71
2021/04/27 06:31:00;;;;;;;20.87;4.73;;;;;;;;;;5035105;28;20185;-71
2021/04/27 06:34:05;;;;;;;8.47;4.30;;;;;;;;;;5034862;28;20624;-71
2021/04/27 06:37:11;;;;;;;14.70;4.30;;;;;;;;;;5033525;28;20224;-71
2021/04/27 06:40:15;;;;;;;6.73;3.93;;;;;;;;;;5034562;28;20201;-71
2021/04/27 06:43:20;;;;;;;8.93;4.20;;;;;;;;;;5034629;28;20216;-71
2021/04/27 06:46:24;;;;;;;6.80;4.00;;;;;;;;;;5034200;28;20220;-71
2021/04/27 06:49:28;;;;;;;10.07;4.27;;;;;;;;;;5039697;28;20632;-71
2021/04/27 06:52:33;;;;;;;9.37;4.30;;;;;;;;;;5034649;28;20177;-71
2021/04/27 06:55:37;;;;;;;7.17;4.20;;;;;;;;;;5033772;28;20220;-71
2021/04/27 06:58:41;;;;;;;8.47;4.27;;;;;;;;;;5034460;28;20189;-71
2021/04/27 07:01:48;;;;;;;5.33;4.10;;;;;;;;;;5033454;28;20181;-72
2021/04/27 07:05:12;;;;;;;6.77;4.00;;;;;;;;;;5034117;28;20186;-71
2021/04/27 07:08:18;;;;;;;8.57;4.20;;;;;;;;;;5039211;28;20180;-70
2021/04/27 07:11:22;;;;;;;8.63;4.17;;;;;;;;;;5034056;28;20176;-71
2021/04/27 07:14:27;;;;;;;7.27;4.10;;;;;;;;;;5034105;28;20173;-71
2021/04/27 07:17:36;;;;;;;9.00;4.23;;;;;;;;;;5033951;28;20185;-71
2021/04/27 07:20:42;;;;;;;10.43;4.50;;;;;;;;;;5034002;28;20180;-71
2021/04/27 07:23:46;;;;;;;5.93;3.80;;;;;;;;;;5033713;28;20208;-71
2021/04/27 07:26:51;;;;;;;8.00;4.47;;;;;;;;;;5034469;28;20587;-71
2021/04/27 07:29:55;;;;;;;12.90;4.43;;;;;;;;;;5031417;28;20416;-70
2021/04/27 07:32:59;;;;;;;7.83;4.40;;;;;;;;;;5045230;28;20203;-71
2021/04/27 07:36:04;;;;;;;13.03;4.33;;;;;;;;;;5044088;28;20702;-70
2021/04/27 07:39:10;;;;;;;11.10;4.73;;;;;;;;;;5029293;28;20189;-71
2021/04/27 07:42:13;;;;;;;6.37;4.13;;;;;;;;;;5034103;28;20678;-71
2021/04/27 07:45:17;;;;;;;6.80;4.43;;;;;;;;;;5045797;28;20196;-71
2021/04/27 07:48:22;;;;;;;5.90;4.40;;;;;;;;;;5054545;28;20180;-71
2021/04/27 07:51:26;;;;;;;12.60;4.10;;;;;;;;;;5049814;28;20180;-71
2021/04/27 07:54:30;;;;;;;11.23;4.47;;;;;;;;;;5049208;28;20180;-71
2021/04/27 07:57:34;;;;;;;32.30;5.47;;;;;;;;;;5050046;28;20184;-71
2021/04/27 08:00:39;;;;;;;7.83;4.47;;;;;;;;;;5049712;28;20219;-71
2021/04/27 08:03:43;;;;;;;10.03;4.40;;;;;;;;;;5049662;28;20219;-71
2021/04/27 08:06:47;;;;;;;10.37;4.83;;;;;;;;;;5049915;28;20223;-71
2021/04/27 08:09:51;;;;;;;12.63;4.70;;;;;;;;;;5049682;28;20183;-71
2021/04/27 08:12:55;;;;;;;8.43;4.37;;;;;;;;;;5049664;28;20180;-71
2021/04/27 08:16:00;;;;;;;6.47;4.60;;;;;;;;;;5043143;28;20223;-71
2021/04/27 08:19:06;;;;;;;6.17;4.53;;;;;;;;;;5029059;28;20181;-71
2021/04/27 08:22:10;;;;;;;8.57;4.60;;;;;;;;;;5029259;28;20675;-71
2021/04/27 08:25:15;;;;;;;6.33;4.70;;;;;;;;;;5028139;28;20200;-71
2021/04/27 08:28:20;;;;;;;10.40;4.70;;;;;;;;;;5029210;28;20325;-71
2021/04/27 08:31:24;;;;;;;11.60;5.20;;;;;;;;;;5028916;28;20180;-71
2021/04/27 08:34:28;;;;;;;10.50;4.53;;;;;;;;;;5029057;28;20177;-71
2021/04/27 08:37:32;;;;;;;7.53;4.63;;;;;;;;;;5029291;28;20181;-71
2021/04/27 08:40:37;;;;;;;8.87;4.60;;;;;;;;;;5028288;28;20193;-72
2021/04/27 08:43:41;;;;;;;6.57;4.50;;;;;;;;;;5028502;28;20212;-71
2021/04/27 08:46:46;;;;;;;9.87;5.13;;;;;;;;;;5040170;28;20224;-71
2021/04/27 08:49:51;;;;;;;12.23;4.60;;;;;;;;;;5029204;28;20176;-71
2021/04/27 08:52:57;;;;;;;11.10;4.87;;;;;;;;;;5028204;28;20177;-71
2021/04/27 08:56:01;;;;;;;41.27;6.70;;;;;;;;;;5034053;28;20224;-71
2021/04/27 08:59:06;;;;;;;15.17;6.23;;;;;;;;;;5038634;28;20208;-71
2021/04/27 09:02:11;;;;;;;13.87;5.03;;;;;;;;;;5048487;28;20209;-71
2021/04/27 09:05:24;;;;;;;9.77;5.20;;;;;;;;;;5032647;28;20509;-71
2021/04/27 09:08:35;;;;;;;7.17;5.23;;;;;;;;;;5032666;28;20640;-71
2021/04/27 09:11:47;;;;;;;8.77;4.87;;;;;;;;;;5042399;28;20200;-71
2021/04/27 09:14:52;;;;;;;11.40;5.17;;;;;;;;;;5032505;28;20181;-71
2021/04/27 09:17:56;;;;;;;15.73;5.13;;;;;;;;;;5039121;28;20208;-71
2021/04/27 09:21:10;;;;;;;13.57;5.50;;;;;;;;;;5052232;28;20647;-71
2021/04/27 09:24:17;;;;;;;11.97;4.97;;;;;;;;;;5049800;28;20220;-72
2021/04/27 09:27:50;;;;;;;9.03;4.77;;;;;;;;;;5047175;28;20232;-72
2021/04/27 09:39:50;;;;;;;12.50;5.17;;;;;;;;;;5037320;28;20193;-72
2021/04/27 09:43:06;;;;;;;10.97;5.57;;;;;;;;;;5054631;28;20212;-72
2021/04/27 09:46:18;;;;;;;52.67;8.13;;;;;;;;;;5031909;28;20553;-71
2021/04/27 09:49:30;;;;;;;9.97;5.73;;;;;;;;;;5031943;28;20173;-71
2021/04/27 09:52:46;;;;;;;14.17;4.77;;;;;;;;;;5031785;28;20648;-71
2021/04/27 09:55:50;;;;;;;6.67;4.97;;;;;;;;;;5031535;28;20213;-71
2021/04/27 09:59:05;;;;;;;18.97;5.60;;;;;;;;;;5031728;28;20189;-71
2021/04/27 10:02:09;;;;;;;11.07;4.87;;;;;;;;;;5031592;28;20185;-70
2021/04/27 10:05:16;;;;;;;16.07;5.50;;;;;;;;;;5034262;28;20205;-70
2021/04/27 10:08:20;;;;;;;6.77;4.93;;;;;;;;;;5035281;28;20627;-71
2021/04/27 10:11:26;;;;;;;8.27;5.63;;;;;;;;;;5034167;28;20181;-70
2021/04/27 10:14:31;;;;;;;8.70;5.27;;;;;;;;;;5035252;28;20181;-71
2021/04/27 10:17:38;;;;;;;6.97;4.93;;;;;;;;;;5035018;28;20197;-71
2021/04/27 10:20:42;;;;;;;5.73;4.80;;;;;;;;;;5034974;28;20197;-72
2021/04/27 10:23:50;;;;;;;11.13;5.23;;;;;;;;;;5034254;28;20212;-77
2021/04/27 10:26:54;;;;;;;21.30;5.97;;;;;;;;;;5035685;28;20229;-75
2021/04/27 10:30:25;;;;;;;6.70;4.63;;;;;;;;;;5039939;28;20177;-76
2021/04/27 10:33:29;;;;;;;8.83;5.67;;;;;;;;;;5034886;28;20204;-76
2021/04/27 10:36:36;;;;;;;26.37;5.90;;;;;;;;;;5034872;28;20227;-76
2021/04/27 10:39:47;;;;;;;9.23;5.90;;;;;;;;;;5050315;28;20571;-76
2021/04/27 10:42:52;;;;;;;10.03;5.10;;;;;;;;;;5031168;28;20564;-76
2021/04/27 10:46:00;;;;;;;6.87;5.27;;;;;;;;;;5031065;28;20216;-76
2021/04/27 10:49:19;;;;;;;11.47;5.17;;;;;;;;;;5030031;28;20177;-76
2021/04/27 10:52:35;;;;;;;6.00;4.60;;;;;;;;;;5031020;28;20667;-75
2021/04/27 10:55:51;;;;;;;12.30;4.63;;;;;;;;;;5030858;28;20212;-75
2021/04/27 10:59:04;;;;;;;12.10;4.90;;;;;;;;;;5046383;28;20917;-75
2021/04/27 11:02:11;;;;;;;7.37;5.00;;;;;;;;;;5035520;28;20643;-76
2021/04/27 11:05:18;;;;;;;10.73;5.23;;;;;;;;;;5027710;28;20238;-75
2021/04/27 11:08:22;;;;;;;8.83;5.13;;;;;;;;;;5029771;28;20193;-76
2021/04/27 11:11:29;;;;;;;7.87;5.33;;;;;;;;;;5030403;28;20597;-76
2021/04/27 11:14:34;;;;;;;5.63;4.63;;;;;;;;;;5029700;28;20192;-77
2021/04/27 11:17:41;;;;;;;9.40;4.60;;;;;;;;;;5029628;28;20197;-76
2021/04/27 11:21:06;;;;;;;11.43;4.77;;;;;;;;;;5029704;28;20185;-76
2021/04/27 11:24:34;;;;;;;9.00;4.37;;;;;;;;;;5049041;28;20220;-77
2021/04/27 11:27:39;;;;;;;6.83;4.87;;;;;;;;;;5069942;28;20543;-76
2021/04/27 11:30:43;;;;;;;11.13;4.77;;;;;;;;;;5070345;28;20179;-77
2021/04/27 11:34:00;;;;;;;9.83;5.30;;;;;;;;;;5058285;28;20192;-77
2021/04/27 11:37:06;;;;;;;9.37;5.47;;;;;;;;;;5063471;28;20228;-76
2021/04/27 11:40:37;;;;;;;10.50;4.90;;;;;;;;;;5049292;28;20172;-76
2021/04/27 11:43:41;;;;;;;7.60;4.80;;;;;;;;;;5049922;28;20179;-75
2021/04/27 11:47:03;;;;;;;8.33;5.47;;;;;;;;;;5050042;28;20220;-77
2021/04/27 11:50:13;;;;;;;8.93;4.90;;;;;;;;;;5049377;28;20185;-76
2021/04/27 11:53:21;;;;;;;17.40;5.77;;;;;;;;;;5049955;28;20184;-76
2021/04/27 11:56:25;;;;;;;6.43;4.40;;;;;;;;;;5049266;28;20220;-76
2021/04/27 11:59:29;;;;;;;12.33;4.97;;;;;;;;;;5057371;28;20524;-77
2021/04/27 12:02:34;;;;;;;9.20;4.90;;;;;;;;;;5069647;22;20231;-75
2021/04/27 12:05:38;;;;;;;10.87;5.30;;;;;;;;;;5056861;28;20224;-75
2021/04/27 12:08:49;;;;;;;12.33;5.63;;;;;;;;;;5066358;28;20542;-75
2021/04/27 12:12:08;;;;;;;34.80;6.20;;;;;;;;;;5073188;28;20519;-74
2021/04/27 12:15:12;;;;;;;23.43;5.73;;;;;;;;;;5073147;28;20184;-74
2021/04/27 12:18:16;;;;;;;10.50;4.30;;;;;;;;;;5049721;28;20179;-73
2021/04/27 12:21:51;;;;;;;8.47;4.93;;;;;;;;;;5077699;23;20230;-74
2021/04/27 12:24:55;;;;;;;9.13;4.50;;;;;;;;;;5092799;28;20203;-74
2021/04/27 12:28:04;;;;;;;10.43;5.03;;;;;;;;;;5060718;28;20184;-73
2021/04/27 12:31:10;;;;;;;14.60;5.30;;;;;;;;;;5073325;28;20179;-74
2021/04/27 12:36:05;;;;;;;15.30;4.77;;;;;;;;;;5074310;28;20666;-73
2021/04/27 12:39:22;;;;;;;14.23;5.20;;;;;;;;;;5005305;28;20220;-73
2021/04/27 12:42:29;;;;;;;10.47;5.60;;;;;;;;;;5056836;28;20176;-73
2021/04/27 12:45:52;;;;;;;8.47;5.50;;;;;;;;;;5044409;28;20228;-74
2021/04/27 12:49:06;;;;;;;9.83;5.27;;;;;;;;;;5056810;28;20532;-73
2021/04/27 12:52:14;;;;;;;8.23;4.50;;;;;;;;;;5056583;28;20176;-73
2021/04/27 12:55:25;;;;;;;10.63;5.00;;;;;;;;;;5057001;28;20188;-73
2021/04/27 12:58:29;;;;;;;7.13;3.93;;;;;;;;;;5044342;28;20635;-73
2021/04/27 13:01:33;;;;;;;8.07;4.70;;;;;;;;;;5056432;28;20184;-73
2021/04/27 13:04:46;;;;;;;11.03;4.73;;;;;;;;;;5056674;28;20212;-73
2021/04/27 13:08:04;;;;;;;6.97;4.80;;;;;;;;;;5050112;28;20176;-73
2021/04/27 13:11:07;;;;;;;10.17;4.33;;;;;;;;;;5056618;28;20181;-73
2021/04/27 13:14:19;;;;;;;9.77;4.33;;;;;;;;;;5044062;28;20508;-73
2021/04/27 13:17:42;;;;;;;14.53;6.13;;;;;;;;;;5056074;28;20220;-73
2021/04/27 13:20:50;;;;;;;6.30;4.43;;;;;;;;;;5055959;28;20535;-73
2021/04/27 13:24:10;;;;;;;8.90;4.43;;;;;;;;;;5055991;28;20635;-72
2021/04/27 13:27:26;;;;;;;6.67;3.73;;;;;;;;;;5056243;28;20212;-72
2021/04/27 13:30:33;;;;;;;10.73;4.70;;;;;;;;;;5056017;28;20520;-73
2021/04/27 13:33:42;;;;;;;5.57;4.00;;;;;;;;;;5056181;28;20192;-73
2021/04/27 13:36:46;;;;;;;6.00;4.07;;;;;;;;;;5056017;28;20216;-73
2021/04/27 13:39:50;;;;;;;6.27;4.10;;;;;;;;;;5043570;28;20219;-73
2021/04/27 13:43:00;;;;;;;6.60;4.27;;;;;;;;;;5049619;28;20184;-73
2021/04/27 13:46:06;;;;;;;18.13;4.27;;;;;;;;;;5054989;28;20232;-73
2021/04/27 13:50:13;;;;;;;6.23;3.60;;;;;;;;;;5043614;28;20184;-73
2021/04/27 13:58:14;;;;;;;5.50;4.37;;;;;;;;;;5055173;28;20188;-73
2021/04/27 14:01:18;;;;;;;4.90;4.23;;;;;;;;;;5055282;28;20203;-73
2021/04/27 14:04:22;;;;;;;19.07;4.83;;;;;;;;;;5031808;28;20224;-73
2021/04/27 14:07:26;;;;;;;12.73;4.40;;;;;;;;;;5055664;28;20219;-73
2021/04/27 14:10:31;;;;;;;8.23;4.13;;;;;;;;;;5042805;28;20184;-73
2021/04/27 14:13:35;;;;;;;8.73;4.33;;;;;;;;;;5055283;28;20203;-73
2021/04/27 14:16:39;;;;;;;8.93;4.27;;;;;;;;;;5042796;28;20220;-74
2021/04/27 14:19:50;;;;;;;5.40;4.00;;;;;;;;;;5055009;28;20233;-73
2021/04/27 14:22:56;;;;;;;6.87;3.87;;;;;;;;;;5055176;28;20184;-74
2021/04/27 14:26:00;;;;;;;10.20;3.87;;;;;;;;;;5042534;28;20690;-74
2021/04/27 14:29:05;;;;;;;7.87;3.80;;;;;;;;;;5054873;28;20187;-74
2021/04/27 14:32:10;;;;;;;20.87;5.10;;;;;;;;;;5042863;28;20176;-74
2021/04/27 14:35:15;;;;;;;5.10;3.90;;;;;;;;;;5054968;28;20180;-74
2021/04/27 14:38:20;;;;;;;10.00;4.33;;;;;;;;;;5031410;28;20184;-74
2021/04/27 14:41:25;;;;;;;25.53;5.00;;;;;;;;;;5048564;28;20176;-74
2021/04/27 14:44:30;;;;;;;7.67;3.67;;;;;;;;;;5059624;28;20188;-74
2021/04/27 14:47:34;;;;;;;9.87;3.50;;;;;;;;;;5042574;28;20536;-74
2021/04/27 14:50:38;;;;;;;71.83;6.47;;;;;;;;;;5042579;28;20188;-74
2021/04/27 14:53:42;;;;;;;5.27;3.83;;;;;;;;;;5054051;28;20191;-73
2021/04/27 14:56:51;;;;;;;4.17;3.73;;;;;;;;;;5054162;28;20208;-74
2021/04/27 14:59:56;;;;;;;5.87;3.90;;;;;;;;;;5054168;28;20192;-73
2021/04/27 15:03:00;;;;;;;6.93;4.07;;;;;;;;;;5054461;28;20184;-74
2021/04/27 15:06:04;;;;;;;5.73;3.57;;;;;;;;;;5053997;28;20223;-74
2021/04/27 15:09:10;;;;;;;5.67;3.47;;;;;;;;;;5054237;28;20176;-74
2021/04/27 15:12:19;;;;;;;6.57;3.53;;;;;;;;;;5032557;28;20199;-74
2021/04/27 15:15:23;;;;;;;6.63;3.80;;;;;;;;;;5030308;28;20674;-74
2021/04/27 15:18:27;;;;;;;10.13;3.90;;;;;;;;;;5041701;28;20176;-74
2021/04/27 15:21:34;;;;;;;25.97;4.97;;;;;;;;;;5053871;28;20208;-74
2021/04/27 15:24:37;;;;;;;8.87;3.43;;;;;;;;;;5041487;28;20200;-74
2021/04/27 15:27:42;;;;;;;74.03;8.50;;;;;;;;;;5041897;28;20184;-74
2021/04/27 15:30:47;;;;;;;4.23;3.53;;;;;;;;;;5056551;28;20200;-74
2021/04/27 15:33:51;;;;;;;9.50;3.83;;;;;;;;;;5053705;28;20184;-74
2021/04/27 15:36:57;;;;;;;9.60;3.93;;;;;;;;;;5053529;28;20224;-74
2021/04/27 15:40:03;;;;;;;5.20;3.47;;;;;;;;;;5054146;28;20180;-74
2021/04/27 15:43:07;;;;;;;5.37;3.27;;;;;;;;;;5053514;28;20180;-75
2021/04/27 15:46:12;;;;;;;6.30;4.03;;;;;;;;;;5041214;28;20227;-74
2021/04/27 15:49:17;;;;;;;8.40;3.60;;;;;;;;;;5041567;28;20176;-74
2021/04/27 15:52:28;;;;;;;7.80;3.80;;;;;;;;;;5053366;28;20630;-74
2021/04/27 15:55:34;;;;;;;5.47;3.80;;;;;;;;;;5053540;28;20212;-74
2021/04/27 15:58:39;;;;;;;5.43;4.07;;;;;;;;;;5053008;28;20196;-74
2021/04/27 16:01:47;;;;;;;8.40;4.10;;;;;;;;;;5053545;28;20184;-74
2021/04/27 16:04:52;;;;;;;6.17;3.57;;;;;;;;;;5040799;28;20184;-74
2021/04/27 16:07:58;;;;;;;4.70;3.90;;;;;;;;;;5052418;28;20535;-73
2021/04/27 16:11:02;;;;;;;8.37;4.20;;;;;;;;;;5040820;28;20203;-74
2021/04/27 16:14:09;;;;;;;6.70;4.03;;;;;;;;;;5053249;28;20180;-73
2021/04/27 16:17:13;;;;;;;80.30;7.43;;;;;;;;;;5053066;28;20215;-74
2021/04/27 16:20:18;;;;;;;10.13;3.77;;;;;;;;;;5053197;28;20215;-74
2021/04/27 16:23:23;;;;;;;10.03;3.50;;;;;;;;;;5046965;28;20188;-74
2021/04/27 16:26:27;;;;;;;11.70;4.10;;;;;;;;;;5043396;28;20228;-74
2021/04/27 16:29:31;;;;;;;6.17;3.53;;;;;;;;;;5053122;28;20516;-73
2021/04/27 16:32:36;;;;;;;4.30;3.37;;;;;;;;;;5041405;28;20508;-74
2021/04/27 16:35:40;;;;;;;8.80;3.73;;;;;;;;;;5053127;28;20556;-74
2021/04/27 16:38:44;;;;;;;6.10;3.67;;;;;;;;;;5052798;28;20196;-74
2021/04/27 16:41:48;;;;;;;6.93;3.70;;;;;;;;;;5052894;28;20196;-74
2021/04/27 16:44:52;;;;;;;6.67;3.43;;;;;;;;;;5052793;28;20639;-74
2021/04/27 16:47:57;;;;;;;16.47;4.30;;;;;;;;;;5040903;28;20195;-74
2021/04/27 16:51:02;;;;;;;7.77;3.23;;;;;;;;;;5053652;28;20195;-73
2021/04/27 16:54:06;;;;;;;4.73;3.63;;;;;;;;;;5053097;28;20204;-73
2021/04/27 16:57:10;;;;;;;6.97;3.60;;;;;;;;;;5040457;28;20208;-73
2021/04/27 17:00:20;;;;;;;9.07;5.80;;;;;;;;;;5048430;28;20176;-73
2021/04/27 17:03:45;;;;;;;5.57;3.77;;;;;;;;;;5048756;28;20184;-74
2021/04/27 17:06:49;;;;;;;8.70;4.70;;;;;;;;;;5048366;28;20603;-73
2021/04/27 17:09:53;;;;;;;16.97;4.60;;;;;;;;;;5036863;28;20204;-73
2021/04/27 17:13:00;;;;;;;14.23;4.13;;;;;;;;;;5049010;28;20635;-73
2021/04/27 17:16:04;;;;;;;8.20;3.70;;;;;;;;;;5036406;28;20216;-73
2021/04/27 17:19:09;;;;;;;4.93;3.60;;;;;;;;;;5048829;28;20188;-73
2021/04/27 17:22:13;;;;;;;6.07;3.90;;;;;;;;;;5051400;28;20203;-75
2021/04/27 17:25:17;;;;;;;7.13;3.80;;;;;;;;;;5052196;28;20184;-74
2021/04/27 17:28:22;;;;;;;5.23;4.00;;;;;;;;;;5052193;28;20184;-74
2021/04/27 17:31:26;;;;;;;5.40;3.40;;;;;;;;;;5049035;28;20207;-73
2021/04/27 17:34:31;;;;;;;7.47;3.77;;;;;;;;;;5071950;28;20677;-74
2021/04/27 17:37:36;;;;;;;5.23;3.40;;;;;;;;;;5072222;28;20180;-74
2021/04/27 17:40:41;;;;;;;8.57;3.77;;;;;;;;;;5071989;28;20179;-73
2021/04/27 17:43:45;;;;;;;13.27;3.37;;;;;;;;;;5072446;28;20179;-74
2021/04/27 17:46:50;;;;;;;5.40;3.27;;;;;;;;;;5060883;28;20227;-74
2021/04/27 17:49:58;;;;;;;3.97;3.10;;;;;;;;;;5059399;28;20188;-74
2021/04/27 17:53:03;;;;;;;12.63;3.73;;;;;;;;;;5048036;28;20622;-73
2021/04/27 17:56:08;;;;;;;6.77;3.47;;;;;;;;;;5071613;28;20207;-73
2021/04/27 17:59:14;;;;;;;10.90;3.50;;;;;;;;;;5059064;28;20180;-74
2021/04/27 18:02:18;;;;;;;7.87;3.90;;;;;;;;;;5071590;28;20187;-73
2021/04/27 18:05:24;;;;;;;6.03;3.73;;;;;;;;;;5071692;28;20219;-74
2021/04/27 18:08:30;;;;;;;9.87;3.60;;;;;;;;;;5059129;28;20523;-74
2021/04/27 18:11:35;;;;;;;9.43;4.00;;;;;;;;;;5071016;28;20184;-75
2021/04/27 18:14:44;;;;;;;7.70;3.77;;;;;;;;;;5059782;28;20179;-73
2021/04/27 18:17:53;;;;;;;7.60;3.80;;;;;;;;;;5071427;28;20539;-73
2021/04/27 18:20:58;;;;;;;5.33;3.77;;;;;;;;;;5071028;28;20207;-73
2021/04/27 18:24:03;;;;;;;6.13;3.67;;;;;;;;;;5070072;28;20179;-73
2021/04/27 18:27:08;;;;;;;5.43;3.33;;;;;;;;;;5070795;28;20223;-74
2021/04/27 18:30:16;;;;;;;7.47;3.80;;;;;;;;;;5071089;28;20184;-74
2021/04/27 18:33:22;;;;;;;11.10;3.60;;;;;;;;;;5064843;28;20175;-73
2021/04/27 18:36:26;;;;;;;4.57;3.30;;;;;;;;;;5058307;28;20231;-74
2021/04/27 18:39:31;;;;;;;6.67;4.07;;;;;;;;;;5058592;28;20199;-74
2021/04/27 18:42:36;;;;;;;9.23;3.57;;;;;;;;;;5058687;28;20183;-74
2021/04/27 18:45:42;;;;;;;8.90;3.20;;;;;;;;;;5070600;28;20222;-74
2021/04/27 18:48:46;;;;;;;6.00;3.10;;;;;;;;;;5064385;28;20527;-73
2021/04/27 18:51:51;;;;;;;7.97;3.07;;;;;;;;;;5070661;28;20180;-73
2021/04/27 18:54:56;;;;;;;5.00;3.13;;;;;;;;;;5064258;28;20172;-73